Time;durP1;ratioP1;P1;durP2;ratioP2;P2;SDS_P1;SDS_P2;PMS_P1;PMS_P2;Temp;Humidity;BMP_temperature;BMP_pressure;BME280_temperature;BME280_humidity;BME280_pressure;Samples;Min_cycle;Max_cycle;Signal;HPM_P1;HPM_P2
2024/01/09 00:00:33;;;;;;;9.23;6.30;;;-3.30;99.90;;;;;;5065707;28;20443;-63
2024/01/09 00:02:59;;;;;;;9.75;6.85;;;-3.30;99.90;;;;;;5068998;28;20470;-64
2024/01/09 00:05:24;;;;;;;7.80;6.23;;;-3.30;99.90;;;;;;5049398;28;20407;-63
2024/01/09 00:07:50;;;;;;;8.83;6.23;;;-3.40;99.90;;;;;;5047232;28;20485;-63
2024/01/09 00:10:16;;;;;;;8.57;6.57;;;-3.40;99.90;;;;;;5069010;28;20475;-63
2024/01/09 00:12:41;;;;;;;7.83;6.03;;;-3.40;99.90;;;;;;5065612;28;20418;-63
2024/01/09 00:15:09;;;;;;;9.15;5.78;;;-3.50;99.90;;;;;;5065071;28;21043;-64
2024/01/09 00:17:35;;;;;;;8.48;5.50;;;-3.40;99.90;;;;;;5047658;28;20453;-63
2024/01/09 00:20:01;;;;;;;7.75;6.03;;;-3.50;99.90;;;;;;5067934;28;20515;-63
2024/01/09 00:22:29;;;;;;;9.70;6.40;;;-3.50;99.90;;;;;;5070850;28;20438;-63
2024/01/09 00:24:55;;;;;;;8.55;6.05;;;-3.50;99.90;;;;;;5071952;28;20917;-64
2024/01/09 00:27:21;;;;;;;8.15;5.60;;;-3.50;99.90;;;;;;5068057;28;20444;-64
2024/01/09 00:29:46;;;;;;;10.33;5.93;;;-3.50;99.90;;;;;;5053105;28;20419;-63
2024/01/09 00:32:12;;;;;;;6.77;5.47;;;-3.50;99.90;;;;;;5071479;28;20426;-64
2024/01/09 00:34:40;;;;;;;6.57;5.60;;;-3.50;99.90;;;;;;5071136;28;20434;-63
2024/01/09 00:37:05;;;;;;;7.22;5.25;;;-3.50;99.90;;;;;;5070592;28;20464;-63
2024/01/09 00:39:31;;;;;;;7.13;5.60;;;-3.60;99.90;;;;;;5071216;28;20506;-63
2024/01/09 00:41:57;;;;;;;8.70;5.25;;;-3.60;99.90;;;;;;5070863;28;20768;-63
2024/01/09 00:44:22;;;;;;;7.13;5.20;;;-3.60;99.90;;;;;;5071500;28;20950;-63
2024/01/09 00:46:48;;;;;;;7.20;5.13;;;-3.70;99.90;;;;;;5069471;28;20915;-63
2024/01/09 00:49:14;;;;;;;9.53;5.93;;;-3.60;99.90;;;;;;5066928;28;20408;-63
2024/01/09 00:51:39;;;;;;;8.07;5.37;;;-3.60;99.90;;;;;;5071871;28;20957;-63
2024/01/09 00:54:05;;;;;;;6.65;5.07;;;-3.70;99.90;;;;;;5070046;28;20785;-63
2024/01/09 00:56:31;;;;;;;7.45;5.20;;;-3.70;99.90;;;;;;5069971;28;20514;-63
2024/01/09 00:58:57;;;;;;;7.07;4.90;;;-3.70;99.90;;;;;;5070430;28;20407;-63
2024/01/09 01:01:22;;;;;;;7.50;5.18;;;-3.70;99.90;;;;;;5068401;28;20426;-63
2024/01/09 01:03:48;;;;;;;7.43;5.40;;;-3.70;99.90;;;;;;5069596;28;20791;-64
2024/01/09 01:06:14;;;;;;;6.97;5.43;;;-3.70;99.90;;;;;;5069284;28;20819;-64
2024/01/09 01:08:39;;;;;;;7.97;5.40;;;-3.70;99.90;;;;;;5067511;28;20422;-64
2024/01/09 01:11:08;;;;;;;7.10;5.33;;;-3.70;99.90;;;;;;5052143;28;20436;-64
2024/01/09 01:13:34;;;;;;;6.57;5.10;;;-3.80;99.90;;;;;;5071208;28;20445;-64
2024/01/09 01:16:00;;;;;;;8.40;5.60;;;-3.80;99.90;;;;;;5070651;28;20938;-64
2024/01/09 01:18:25;;;;;;;7.03;5.35;;;-3.80;99.90;;;;;;5068794;28;20407;-64
2024/01/09 01:20:51;;;;;;;7.30;5.45;;;-3.80;99.90;;;;;;5069343;28;20411;-64
2024/01/09 01:23:17;;;;;;;7.90;5.22;;;-3.80;99.90;;;;;;5070505;28;20404;-64
2024/01/09 01:25:42;;;;;;;6.60;5.13;;;-3.80;99.90;;;;;;5053112;28;20434;-64
2024/01/09 01:28:08;;;;;;;7.53;5.47;;;-3.80;99.90;;;;;;5069780;28;20423;-64
2024/01/09 01:30:34;;;;;;;6.90;5.20;;;-3.80;99.90;;;;;;5034097;28;20575;-64
2024/01/09 01:32:59;;;;;;;6.63;5.07;;;-3.80;99.90;;;;;;5069016;28;20403;-64
2024/01/09 01:35:25;;;;;;;7.72;5.13;;;-3.90;99.90;;;;;;5070246;28;20420;-65
2024/01/09 01:37:51;;;;;;;6.93;4.80;;;-3.90;99.90;;;;;;5069143;28;20420;-64
2024/01/09 01:40:17;;;;;;;7.18;5.22;;;-3.90;99.90;;;;;;5068209;28;20432;-64
2024/01/09 01:42:43;;;;;;;5.90;4.57;;;-4.00;99.90;;;;;;5071071;28;20535;-64
2024/01/09 01:45:21;;;;;;;7.13;4.93;;;-4.00;99.90;;;;;;5070700;28;20403;-64
2024/01/09 01:47:47;;;;;;;6.00;4.88;;;-4.00;99.90;;;;;;5066908;28;20420;-64
2024/01/09 01:50:15;;;;;;;5.97;4.90;;;-4.00;99.90;;;;;;5067621;28;20447;-64
2024/01/09 01:52:45;;;;;;;6.63;4.88;;;-4.00;99.90;;;;;;5069630;28;20880;-64
2024/01/09 01:55:12;;;;;;;6.78;4.85;;;-4.00;99.90;;;;;;5052959;28;20948;-63
2024/01/09 01:57:39;;;;;;;6.70;4.75;;;-4.00;99.90;;;;;;5069139;28;20823;-63
2024/01/09 02:00:06;;;;;;;6.85;4.63;;;-4.00;99.90;;;;;;5068568;28;20463;-63
2024/01/09 02:02:32;;;;;;;5.70;4.68;;;-4.00;99.90;;;;;;5065548;28;20415;-64
2024/01/09 02:04:58;;;;;;;6.07;4.85;;;-4.00;99.90;;;;;;5069489;28;20958;-63
2024/01/09 02:07:26;;;;;;;5.95;4.68;;;-4.10;99.90;;;;;;5070247;28;20462;-64
2024/01/09 02:09:53;;;;;;;5.30;4.32;;;-4.10;99.90;;;;;;5065432;28;20985;-64
2024/01/09 02:12:19;;;;;;;6.32;4.43;;;-4.10;99.90;;;;;;5069211;28;20478;-64
2024/01/09 02:14:46;;;;;;;6.35;4.93;;;-4.10;99.90;;;;;;5067406;28;20426;-64
2024/01/09 02:17:13;;;;;;;5.97;4.60;;;-4.10;99.90;;;;;;5068343;28;20404;-64
2024/01/09 02:19:39;;;;;;;6.20;4.65;;;-4.10;99.90;;;;;;5069898;28;20399;-63
2024/01/09 02:22:05;;;;;;;6.97;4.97;;;-4.10;99.90;;;;;;5046668;28;20450;-63
2024/01/09 02:24:30;;;;;;;6.03;4.70;;;-4.10;99.90;;;;;;5067475;28;20529;-63
2024/01/09 02:27:07;;;;;;;6.25;4.97;;;-4.10;99.90;;;;;;5068619;28;20904;-63
2024/01/09 02:29:34;;;;;;;6.70;4.95;;;-4.20;99.90;;;;;;5067861;28;20813;-63
2024/01/09 02:32:00;;;;;;;6.97;4.80;;;-4.10;99.90;;;;;;5047242;28;20502;-64
2024/01/09 02:34:28;;;;;;;5.85;4.40;;;-4.10;99.90;;;;;;5070184;28;20494;-63
2024/01/09 02:36:53;;;;;;;7.07;5.13;;;-4.20;99.90;;;;;;5051362;28;20407;-63
2024/01/09 02:39:19;;;;;;;6.10;4.63;;;-4.20;99.90;;;;;;5069012;28;20407;-64
2024/01/09 02:41:46;;;;;;;6.32;4.93;;;-4.20;99.90;;;;;;5067667;28;20396;-63
2024/01/09 02:44:12;;;;;;;6.60;4.80;;;-4.20;99.90;;;;;;5069115;28;20403;-64
2024/01/09 02:46:38;;;;;;;6.15;4.82;;;-4.20;99.90;;;;;;5065574;28;20420;-63
2024/01/09 02:49:03;;;;;;;6.72;4.68;;;-4.20;99.90;;;;;;5065193;28;20467;-63
2024/01/09 02:51:29;;;;;;;5.97;5.03;;;-4.30;99.90;;;;;;5067990;28;20760;-64
2024/01/09 02:53:55;;;;;;;5.55;4.70;;;-4.30;99.90;;;;;;5069457;28;20396;-63
2024/01/09 02:56:21;;;;;;;6.15;5.00;;;-4.30;99.90;;;;;;5050716;28;20430;-64
2024/01/09 02:58:47;;;;;;;8.02;5.07;;;-4.30;99.90;;;;;;5066111;28;20419;-63
2024/01/09 03:01:12;;;;;;;6.05;2.15;;;-4.30;99.90;;;;;;5065538;28;20032;-63
2024/01/09 03:03:38;;;;;;;6.35;2.85;;;-4.60;99.90;;;;;;5066357;28;20419;-63
2024/01/09 03:06:04;;;;;;;8.18;3.55;;;-4.80;99.90;;;;;;5069021;28;20410;-63
2024/01/09 03:08:30;;;;;;;5.25;3.05;;;-4.90;99.90;;;;;;5067370;28;20415;-64
2024/01/09 03:10:55;;;;;;;5.60;3.50;;;-4.90;99.90;;;;;;5068356;28;20423;-63
2024/01/09 03:13:21;;;;;;;6.23;3.10;;;-4.90;99.90;;;;;;5067540;28;20398;-63
2024/01/09 03:15:47;;;;;;;7.32;3.30;;;-5.00;99.90;;;;;;5069297;28;20419;-63
2024/01/09 03:18:13;;;;;;;5.30;3.10;;;-5.00;99.90;;;;;;5066909;28;20472;-64
2024/01/09 03:20:40;;;;;;;6.22;3.30;;;-5.10;99.90;;;;;;5069404;28;20803;-64
2024/01/09 03:23:06;;;;;;;5.97;3.20;;;-5.10;99.90;;;;;;5063189;28;20479;-63
2024/01/09 03:25:31;;;;;;;5.13;3.00;;;-5.10;99.90;;;;;;5065374;28;20490;-63
2024/01/09 03:27:57;;;;;;;7.55;3.20;;;-5.10;99.90;;;;;;5066430;28;20415;-64
2024/01/09 03:30:23;;;;;;;5.40;2.90;;;-5.10;99.90;;;;;;5068597;28;20403;-64
2024/01/09 03:32:49;;;;;;;5.60;3.20;;;-5.20;99.90;;;;;;5068012;28;20451;-64
2024/01/09 03:35:15;;;;;;;4.33;2.80;;;-5.20;99.90;;;;;;5068563;28;20504;-64
2024/01/09 03:37:41;;;;;;;6.00;3.30;;;-5.10;99.90;;;;;;5064354;28;20437;-64
2024/01/09 03:40:07;;;;;;;5.55;3.17;;;-5.20;99.90;;;;;;5068725;28;20399;-64
2024/01/09 03:42:32;;;;;;;6.13;3.20;;;-5.20;99.90;;;;;;5067872;28;20396;-64
2024/01/09 03:44:58;;;;;;;6.47;3.10;;;-5.20;99.90;;;;;;5067460;28;20424;-64
2024/01/09 03:47:24;;;;;;;7.90;3.40;;;-5.20;99.90;;;;;;5066499;28;20403;-64
2024/01/09 03:49:49;;;;;;;6.22;3.30;;;-5.30;99.90;;;;;;5068703;28;20396;-64
2024/01/09 03:52:15;;;;;;;7.30;3.05;;;-5.30;99.90;;;;;;5068128;28;20433;-64
2024/01/09 03:54:41;;;;;;;5.93;3.10;;;-5.40;99.90;;;;;;5064982;28;20430;-64
2024/01/09 03:57:07;;;;;;;4.57;2.93;;;-5.30;99.90;;;;;;5049910;28;20406;-64
2024/01/09 03:59:33;;;;;;;5.15;2.92;;;-5.30;99.90;;;;;;5068143;28;20403;-64
2024/01/09 04:01:59;;;;;;;6.95;3.30;;;-5.40;99.90;;;;;;5068677;28;20404;-65
2024/01/09 04:04:24;;;;;;;4.70;3.05;;;-5.40;99.90;;;;;;5067464;28;20777;-64
2024/01/09 04:06:50;;;;;;;5.57;3.10;;;-5.40;99.90;;;;;;5065860;28;20424;-64
2024/01/09 04:09:16;;;;;;;5.80;3.20;;;-5.40;99.90;;;;;;5068809;28;20403;-64
2024/01/09 04:11:46;;;;;;;6.90;3.33;;;-5.40;99.90;;;;;;5067394;28;20403;-65
2024/01/09 04:14:12;;;;;;;7.38;3.67;;;-5.50;99.90;;;;;;5067970;28;20410;-64
2024/01/09 04:16:37;;;;;;;5.25;3.00;;;-5.50;99.90;;;;;;5047320;28;20411;-64
2024/01/09 04:19:03;;;;;;;5.85;3.22;;;-5.50;99.90;;;;;;5067172;28;20446;-64
2024/01/09 04:21:29;;;;;;;5.15;3.15;;;-5.50;99.90;;;;;;5066635;28;20511;-64
2024/01/09 04:23:54;;;;;;;6.25;3.40;;;-5.50;99.90;;;;;;5064972;28;20411;-65
2024/01/09 04:26:20;;;;;;;5.37;3.40;;;-5.50;99.90;;;;;;5065002;28;20443;-64
2024/01/09 04:28:46;;;;;;;7.10;3.50;;;-5.60;99.90;;;;;;5065431;28;20409;-64
2024/01/09 04:31:11;;;;;;;7.00;3.17;;;-5.60;99.90;;;;;;5067461;28;20414;-64
2024/01/09 04:33:37;;;;;;;6.97;3.25;;;-5.60;99.90;;;;;;5067944;28;20396;-64
2024/01/09 04:36:03;;;;;;;6.95;3.65;;;-5.60;99.90;;;;;;5065895;28;20420;-65
2024/01/09 04:38:29;;;;;;;5.47;3.15;;;-5.60;99.90;;;;;;5049991;28;20402;-64
2024/01/09 04:40:54;;;;;;;6.00;3.35;;;-5.60;99.90;;;;;;5050269;28;20411;-65
2024/01/09 04:43:20;;;;;;;6.93;3.53;;;-5.60;99.90;;;;;;5046686;28;20415;-64
2024/01/09 04:45:46;;;;;;;6.23;3.60;;;-5.70;99.90;;;;;;5066774;28;20435;-64
2024/01/09 04:48:11;;;;;;;7.43;3.63;;;-5.60;99.90;;;;;;5049491;28;20621;-65
2024/01/09 04:50:37;;;;;;;5.30;3.22;;;-5.70;99.90;;;;;;5063084;28;22140;-64
2024/01/09 04:53:03;;;;;;;6.60;3.53;;;-5.70;99.90;;;;;;5060410;28;20407;-64
2024/01/09 04:55:29;;;;;;;5.97;3.70;;;-5.70;99.90;;;;;;5060446;28;20428;-65
2024/01/09 04:57:54;;;;;;;6.22;3.80;;;-5.70;99.90;;;;;;5064579;28;20404;-64
2024/01/09 05:00:22;;;;;;;5.23;3.40;;;-5.70;99.90;;;;;;5065777;28;20413;-64
2024/01/09 05:02:48;;;;;;;7.38;3.63;;;-5.70;99.90;;;;;;5064978;28;20403;-64
2024/01/09 05:05:14;;;;;;;5.85;3.53;;;-5.80;99.90;;;;;;5065509;28;20958;-63
2024/01/09 05:07:40;;;;;;;6.22;3.75;;;-5.80;99.90;;;;;;5071132;28;20750;-64
2024/01/09 05:10:06;;;;;;;5.50;3.40;;;-5.80;99.90;;;;;;5068994;28;20417;-63
2024/01/09 05:12:32;;;;;;;7.30;3.50;;;-5.80;99.90;;;;;;5069988;28;20840;-64
2024/01/09 05:14:57;;;;;;;5.43;3.63;;;-5.80;99.90;;;;;;5052539;28;20465;-64
2024/01/09 05:17:23;;;;;;;6.10;3.67;;;-5.80;99.90;;;;;;5067721;28;20420;-64
2024/01/09 05:19:49;;;;;;;5.70;3.37;;;-5.80;99.90;;;;;;5052085;28;20418;-64
2024/01/09 05:22:14;;;;;;;7.05;3.78;;;-5.90;99.90;;;;;;5070482;28;20396;-63
2024/01/09 05:24:40;;;;;;;6.28;4.00;;;-5.90;99.90;;;;;;5068718;28;20399;-64
2024/01/09 05:27:06;;;;;;;6.63;3.58;;;-5.90;99.90;;;;;;5064216;28;20427;-65
2024/01/09 05:29:31;;;;;;;6.10;3.50;;;-5.90;99.90;;;;;;5068889;28;20420;-65
2024/01/09 05:31:57;;;;;;;5.80;3.43;;;-5.90;99.90;;;;;;5070838;28;20399;-64
2024/01/09 05:34:23;;;;;;;5.97;3.20;;;-5.90;99.90;;;;;;5068472;28;20820;-64
2024/01/09 05:36:49;;;;;;;5.90;3.22;;;-5.90;99.90;;;;;;5068033;28;20441;-64
2024/01/09 05:39:14;;;;;;;5.60;3.40;;;-5.90;99.90;;;;;;5069938;28;21019;-64
2024/01/09 05:41:40;;;;;;;7.10;3.70;;;-6.00;99.90;;;;;;5069273;28;20769;-64
2024/01/09 05:44:06;;;;;;;5.72;3.53;;;-5.90;99.90;;;;;;5069393;28;20411;-65
2024/01/09 05:46:32;;;;;;;6.47;3.45;;;-6.00;99.90;;;;;;5071320;28;20746;-64
2024/01/09 05:48:57;;;;;;;6.63;3.42;;;-6.00;99.90;;;;;;5068757;28;20934;-64
2024/01/09 05:51:23;;;;;;;6.23;3.33;;;-6.00;99.90;;;;;;5070529;28;20468;-64
2024/01/09 05:53:49;;;;;;;6.70;3.30;;;-6.00;99.90;;;;;;5069353;28;20415;-64
2024/01/09 05:56:15;;;;;;;6.10;3.63;;;-6.00;99.90;;;;;;5070779;28;20831;-65
2024/01/09 05:58:40;;;;;;;7.03;3.40;;;-6.10;99.90;;;;;;5068423;28;20423;-64
2024/01/09 06:01:06;;;;;;;5.90;3.43;;;-6.10;99.90;;;;;;5069032;28;20518;-65
2024/01/09 06:03:32;;;;;;;6.78;3.78;;;-6.10;99.90;;;;;;5070200;28;20462;-64
2024/01/09 06:05:57;;;;;;;5.95;3.33;;;-6.10;99.90;;;;;;5068510;28;20411;-64
2024/01/09 06:08:24;;;;;;;6.13;3.63;;;-6.20;99.90;;;;;;5073242;28;20415;-64
2024/01/09 06:10:52;;;;;;;5.82;3.17;;;-6.20;99.90;;;;;;5071000;28;20405;-64
2024/01/09 06:13:18;;;;;;;6.28;3.15;;;-6.20;99.90;;;;;;5069035;28;20416;-64
2024/01/09 06:15:44;;;;;;;7.00;3.30;;;-6.20;99.90;;;;;;5070326;28;20916;-64
2024/01/09 06:18:09;;;;;;;4.77;3.13;;;-6.20;99.90;;;;;;5066797;28;20419;-65
2024/01/09 06:20:35;;;;;;;6.27;3.53;;;-6.20;99.90;;;;;;5069850;28;20411;-65
2024/01/09 06:23:01;;;;;;;6.40;3.72;;;-6.30;99.90;;;;;;5068706;28;20985;-64
2024/01/09 06:25:27;;;;;;;5.33;3.33;;;-6.30;99.90;;;;;;5051810;28;20404;-64
2024/01/09 06:27:52;;;;;;;5.50;3.40;;;-6.30;99.90;;;;;;5068087;28;20441;-65
2024/01/09 06:30:18;;;;;;;5.47;3.25;;;-6.30;99.90;;;;;;5067200;28;20412;-65
2024/01/09 06:32:44;;;;;;;5.10;3.38;;;-6.30;99.90;;;;;;5069809;28;20426;-65
2024/01/09 06:35:10;;;;;;;6.43;3.17;;;-6.40;99.90;;;;;;5068943;28;20435;-65
2024/01/09 06:37:35;;;;;;;6.90;3.60;;;-6.40;99.90;;;;;;5049027;28;20400;-64
2024/01/09 06:40:01;;;;;;;8.23;3.80;;;-6.40;99.90;;;;;;5068826;28;20789;-65
2024/01/09 06:42:27;;;;;;;5.85;3.17;;;-6.40;99.90;;;;;;5068425;28;20473;-65
2024/01/09 06:44:53;;;;;;;6.70;3.47;;;-6.40;99.90;;;;;;5068167;28;20404;-64
2024/01/09 06:47:18;;;;;;;6.17;3.40;;;-6.40;99.90;;;;;;5051012;28;20400;-65
2024/01/09 06:49:44;;;;;;;7.20;3.80;;;-6.40;99.90;;;;;;5065948;28;20475;-64
2024/01/09 06:52:10;;;;;;;5.68;3.42;;;-6.40;99.90;;;;;;5068833;28;20415;-64
2024/01/09 06:54:35;;;;;;;7.35;3.40;;;-6.40;99.90;;;;;;5068799;28;20405;-65
2024/01/09 06:57:01;;;;;;;5.73;3.20;;;-6.40;99.90;;;;;;5068162;28;21076;-65
2024/01/09 06:59:27;;;;;;;7.70;3.63;;;-6.40;99.90;;;;;;5068209;28;20419;-63
2024/01/09 07:01:52;;;;;;;5.50;3.40;;;-6.40;99.90;;;;;;5069326;28;20398;-64
2024/01/09 07:04:18;;;;;;;6.18;3.70;;;-6.40;99.90;;;;;;5067540;28;20919;-65
2024/01/09 07:06:44;;;;;;;6.20;3.28;;;-6.40;99.90;;;;;;5066026;28;20445;-65
2024/01/09 07:09:10;;;;;;;5.32;3.60;;;-6.40;99.90;;;;;;5068007;28;20885;-65
2024/01/09 07:11:35;;;;;;;6.75;3.70;;;-6.40;99.90;;;;;;5069791;28;20983;-65
2024/01/09 07:14:01;;;;;;;5.35;3.25;;;-6.40;99.90;;;;;;5066758;28;20418;-65
2024/01/09 07:16:27;;;;;;;5.37;3.60;;;-6.40;99.90;;;;;;5063844;28;20431;-65
2024/01/09 07:18:53;;;;;;;5.33;3.60;;;-6.50;99.90;;;;;;5066152;28;20424;-65
2024/01/09 07:21:19;;;;;;;6.73;3.60;;;-6.50;99.90;;;;;;5067249;28;20400;-64
2024/01/09 07:23:46;;;;;;;5.70;3.50;;;-6.50;99.90;;;;;;5068326;28;20486;-64
2024/01/09 07:26:12;;;;;;;7.00;3.80;;;-6.50;99.90;;;;;;5060016;28;20423;-65
2024/01/09 07:28:38;;;;;;;5.50;3.65;;;-6.50;99.90;;;;;;5068165;28;20702;-65
2024/01/09 07:31:04;;;;;;;5.97;3.40;;;-6.50;99.90;;;;;;5050089;28;20403;-65
2024/01/09 07:33:30;;;;;;;6.90;3.90;;;-6.50;99.90;;;;;;5066684;28;20408;-64
2024/01/09 07:35:55;;;;;;;7.63;3.93;;;-6.50;99.90;;;;;;5065725;28;20423;-65
2024/01/09 07:38:24;;;;;;;7.88;4.30;;;-6.50;99.90;;;;;;5064927;28;20517;-65
2024/01/09 07:40:50;;;;;;;5.70;3.70;;;-6.50;99.90;;;;;;5093120;28;20448;-65
2024/01/09 07:43:16;;;;;;;7.82;4.05;;;-6.50;99.90;;;;;;5068685;28;20427;-64
2024/01/09 07:45:42;;;;;;;6.72;3.90;;;-6.50;99.90;;;;;;5067583;28;20396;-65
2024/01/09 07:48:08;;;;;;;6.33;3.87;;;-6.50;99.90;;;;;;5064099;28;20889;-65
2024/01/09 07:50:33;;;;;;;7.53;3.70;;;-6.50;99.90;;;;;;5067311;28;20447;-65
2024/01/09 07:52:59;;;;;;;7.22;3.83;;;-6.50;99.90;;;;;;5067584;28;20417;-64
2024/01/09 07:55:25;;;;;;;6.78;3.70;;;-6.50;99.90;;;;;;5065975;28;20458;-64
2024/01/09 07:57:51;;;;;;;7.43;4.10;;;-6.50;99.90;;;;;;5061641;28;20444;-64
2024/01/09 08:00:20;;;;;;;6.40;3.50;;;-6.50;99.90;;;;;;5069215;28;20391;-65
2024/01/09 08:02:45;;;;;;;6.88;3.85;;;-6.60;99.90;;;;;;5068738;28;20462;-64
2024/01/09 08:05:11;;;;;;;7.47;3.88;;;-6.50;99.90;;;;;;5072349;28;20414;-64
2024/01/09 08:07:37;;;;;;;6.90;3.90;;;-6.50;99.90;;;;;;5070361;28;20505;-65
2024/01/09 08:10:03;;;;;;;7.10;4.00;;;-6.50;99.90;;;;;;5074745;28;20756;-65
2024/01/09 08:12:28;;;;;;;5.97;3.85;;;-6.50;99.90;;;;;;5051796;28;21142;-64
2024/01/09 08:14:54;;;;;;;8.23;4.10;;;-6.40;99.90;;;;;;5071039;28;20487;-65
2024/01/09 08:17:20;;;;;;;7.43;4.07;;;-6.00;99.90;;;;;;5073937;28;20409;-65
2024/01/09 08:19:46;;;;;;;9.07;4.10;;;-5.50;99.90;;;;;;5074755;28;20394;-65
2024/01/09 08:22:11;;;;;;;8.30;4.03;;;-5.20;99.90;;;;;;5067944;28;20439;-64
2024/01/09 08:24:37;;;;;;;7.57;3.67;;;-5.10;99.90;;;;;;5065292;28;20410;-64
2024/01/09 08:27:03;;;;;;;6.93;3.78;;;-5.10;99.90;;;;;;5071259;28;20902;-64
2024/01/09 08:29:29;;;;;;;7.05;3.42;;;-5.20;99.90;;;;;;5065337;28;20404;-64
2024/01/09 08:31:55;;;;;;;6.68;3.70;;;-5.30;99.90;;;;;;5067367;28;20414;-64
2024/01/09 08:34:21;;;;;;;6.93;3.83;;;-5.50;99.90;;;;;;5068210;28;20412;-64
2024/01/09 08:36:48;;;;;;;8.25;4.00;;;-5.50;99.90;;;;;;5069547;28;20526;-64
2024/01/09 08:39:14;;;;;;;7.07;3.78;;;-5.60;99.90;;;;;;5034888;28;20520;-64
2024/01/09 08:41:41;;;;;;;7.22;3.78;;;-5.70;99.90;;;;;;5066746;28;20925;-64
2024/01/09 08:44:07;;;;;;;6.47;3.63;;;-5.60;99.90;;;;;;5077965;28;20786;-64
2024/01/09 08:46:33;;;;;;;6.63;3.80;;;-5.60;99.90;;;;;;5077874;28;20393;-64
2024/01/09 08:49:00;;;;;;;7.03;3.60;;;-5.60;99.90;;;;;;5075068;28;20389;-64
2024/01/09 08:51:27;;;;;;;5.87;3.37;;;-5.60;99.90;;;;;;5055823;28;20429;-64
2024/01/09 08:53:55;;;;;;;6.05;3.83;;;-5.50;99.90;;;;;;5073553;28;20432;-64
2024/01/09 08:56:22;;;;;;;6.20;3.80;;;-5.40;99.90;;;;;;5076627;28;20418;-64
2024/01/09 08:58:47;;;;;;;7.18;3.67;;;-5.30;99.90;;;;;;5074134;28;20785;-64
2024/01/09 09:01:18;;;;;;;7.40;3.85;;;-5.20;99.90;;;;;;5072170;28;20471;-65
2024/01/09 09:03:43;;;;;;;8.25;4.20;;;-5.10;99.90;;;;;;5065686;28;20438;-64
2024/01/09 09:06:10;;;;;;;7.82;4.30;;;-4.60;99.90;;;;;;5069473;28;20443;-64
2024/01/09 09:08:36;;;;;;;8.05;4.10;;;-3.70;99.90;;;;;;5069048;28;20460;-64
2024/01/09 09:11:02;;;;;;;7.90;5.20;;;-2.60;99.90;;;;;;5053716;28;20431;-65
2024/01/09 09:13:28;;;;;;;6.97;5.00;;;-1.30;99.90;;;;;;5069229;28;20841;-64
2024/01/09 09:15:54;;;;;;;6.35;5.10;;;-0.10;99.90;;;;;;5067515;28;20955;-65
2024/01/09 09:18:19;;;;;;;6.28;4.90;;;0.90;99.90;;;;;;5071703;28;20465;-64
2024/01/09 09:20:45;;;;;;;6.07;4.80;;;1.70;99.90;;;;;;5070128;28;20420;-65
2024/01/09 09:23:11;;;;;;;6.57;4.60;;;2.40;99.90;;;;;;5060812;28;20422;-64
2024/01/09 09:25:37;;;;;;;6.63;5.00;;;2.80;99.90;;;;;;5053497;28;20447;-65
2024/01/09 09:28:03;;;;;;;5.57;4.70;;;3.10;98.30;;;;;;5065217;28;20499;-64
2024/01/09 09:30:28;;;;;;;6.22;4.80;;;3.30;96.60;;;;;;5057307;28;20420;-64
2024/01/09 09:32:57;;;;;;;5.78;4.72;;;3.50;96.00;;;;;;5061014;28;20420;-64
2024/01/09 09:35:22;;;;;;;5.53;4.65;;;3.40;95.00;;;;;;5066987;28;20534;-64
2024/01/09 09:37:48;;;;;;;5.80;4.30;;;2.80;93.70;;;;;;5070340;28;20490;-64
2024/01/09 09:40:14;;;;;;;5.88;4.47;;;2.30;93.00;;;;;;5071626;28;20626;-64
2024/01/09 09:42:42;;;;;;;6.20;4.30;;;1.80;93.10;;;;;;5069136;28;20407;-64
2024/01/09 09:45:13;;;;;;;5.20;4.40;;;1.30;93.30;;;;;;5053519;28;20413;-64
2024/01/09 09:47:40;;;;;;;5.50;4.30;;;1.10;93.30;;;;;;5068758;28;20430;-63
2024/01/09 09:50:09;;;;;;;5.00;4.30;;;1.10;93.30;;;;;;5070299;28;20407;-64
2024/01/09 09:52:37;;;;;;;5.85;4.40;;;0.70;93.50;;;;;;5065032;28;20431;-64
2024/01/09 09:55:03;;;;;;;5.23;4.10;;;0.20;93.70;;;;;;5066727;28;20501;-64
2024/01/09 09:57:29;;;;;;;5.17;4.40;;;-0.30;94.50;;;;;;5052826;28;20403;-63
2024/01/09 09:59:54;;;;;;;5.73;4.60;;;-0.70;94.90;;;;;;5070065;28;20884;-63
2024/01/09 10:02:26;;;;;;;5.63;4.30;;;-0.80;95.80;;;;;;5069091;28;20419;-63
2024/01/09 10:04:53;;;;;;;5.10;4.15;;;-0.80;96.40;;;;;;5070004;28;20400;-63
2024/01/09 10:07:21;;;;;;;5.90;3.95;;;-0.50;96.30;;;;;;5069872;28;20400;-63
2024/01/09 10:09:51;;;;;;;5.60;4.07;;;-0.20;95.80;;;;;;5069206;28;20433;-64
2024/01/09 10:12:19;;;;;;;8.15;4.10;;;0.00;95.20;;;;;;5065464;28;20823;-63
2024/01/09 10:15:17;;;;;;;5.70;4.13;;;-0.30;95.50;;;;;;5068851;28;20409;-63
2024/01/09 10:17:44;;;;;;;5.38;3.90;;;-0.10;95.40;;;;;;5046833;28;20897;-63
2024/01/09 10:20:12;;;;;;;5.07;4.20;;;0.20;95.20;;;;;;5069513;28;20427;-63
2024/01/09 10:22:39;;;;;;;6.57;4.70;;;0.00;94.50;;;;;;5065728;28;20435;-63
2024/01/09 10:25:06;;;;;;;6.75;4.47;;;-0.30;95.00;;;;;;5103043;28;20412;-63
2024/01/09 10:27:36;;;;;;;5.53;4.45;;;-0.30;96.00;;;;;;5062405;28;20825;-63
2024/01/09 10:30:03;;;;;;;6.35;4.18;;;-0.30;95.70;;;;;;5068662;28;20420;-63
2024/01/09 10:32:33;;;;;;;6.75;4.50;;;-0.60;95.70;;;;;;5061346;28;20421;-63
2024/01/09 10:34:59;;;;;;;6.27;4.43;;;-0.70;96.20;;;;;;5065043;28;20424;-63
2024/01/09 10:37:25;;;;;;;6.13;4.80;;;-0.50;96.60;;;;;;5093377;28;20479;-63
2024/01/09 10:39:51;;;;;;;6.78;4.90;;;-0.30;96.50;;;;;;5057221;28;20432;-64
2024/01/09 10:42:17;;;;;;;5.80;4.22;;;-0.30;96.20;;;;;;5069024;28;20404;-63
2024/01/09 10:44:47;;;;;;;6.28;4.32;;;-0.20;95.90;;;;;;5070379;28;20395;-64
2024/01/09 10:47:14;;;;;;;5.70;4.10;;;-0.30;95.80;;;;;;5069488;28;20803;-64
2024/01/09 10:49:45;;;;;;;6.13;4.27;;;-0.40;96.00;;;;;;5069094;28;20935;-64
2024/01/09 10:52:14;;;;;;;7.40;4.70;;;-0.70;95.80;;;;;;5067965;28;20633;-63
2024/01/09 10:54:42;;;;;;;5.30;4.10;;;-0.90;96.40;;;;;;5070063;28;20392;-63
2024/01/09 10:57:15;;;;;;;5.90;4.30;;;-1.20;96.00;;;;;;5049739;28;20450;-63
2024/01/09 10:59:45;;;;;;;5.28;4.22;;;-1.30;96.60;;;;;;5060054;28;20416;-64
2024/01/09 11:02:16;;;;;;;5.13;4.20;;;-1.30;96.80;;;;;;5062964;28;20780;-63
2024/01/09 11:04:43;;;;;;;6.85;4.38;;;-1.40;96.90;;;;;;5054179;28;20471;-63
2024/01/09 11:07:16;;;;;;;5.80;4.30;;;-1.40;97.10;;;;;;5068122;28;20486;-64
2024/01/09 11:09:44;;;;;;;5.30;3.90;;;-1.50;97.20;;;;;;5065742;28;20603;-64
2024/01/09 11:12:18;;;;;;;5.25;4.10;;;-1.60;97.20;;;;;;5069941;28;20404;-64
2024/01/09 11:14:49;;;;;;;6.10;4.55;;;-1.70;97.10;;;;;;5065908;28;20465;-64
2024/01/09 11:17:17;;;;;;;5.18;3.97;;;-1.70;97.20;;;;;;5065069;28;20426;-64
2024/01/09 11:19:43;;;;;;;5.90;4.05;;;-1.60;97.70;;;;;;5060223;28;20750;-64
2024/01/09 11:22:17;;;;;;;4.53;4.00;;;-1.60;98.00;;;;;;5068311;28;20430;-64
2024/01/09 11:24:47;;;;;;;4.95;4.10;;;-1.50;97.70;;;;;;5064034;28;20419;-64
2024/01/09 11:27:15;;;;;;;6.72;4.50;;;-1.40;97.30;;;;;;5069013;28;20460;-64
2024/01/09 11:29:51;;;;;;;5.55;4.20;;;-1.40;97.70;;;;;;5060619;28;20432;-63
2024/01/09 11:32:17;;;;;;;5.32;4.38;;;-1.50;97.80;;;;;;5059979;28;20412;-64
2024/01/09 11:34:45;;;;;;;5.35;4.00;;;-1.40;98.20;;;;;;5055748;28;20481;-64
2024/01/09 11:37:18;;;;;;;4.70;3.90;;;-1.50;97.70;;;;;;5058045;28;20422;-64
2024/01/09 11:39:44;;;;;;;5.60;4.05;;;-1.50;97.00;;;;;;5068472;28;20408;-64
2024/01/09 11:42:11;;;;;;;5.88;4.00;;;-1.40;97.10;;;;;;5068807;28;20399;-64
2024/01/09 11:44:37;;;;;;;5.22;4.13;;;-1.40;97.30;;;;;;5067951;28;20483;-64
2024/01/09 11:47:03;;;;;;;5.73;4.07;;;-1.40;97.70;;;;;;5069375;28;20479;-64
2024/01/09 11:49:29;;;;;;;5.37;3.97;;;-1.20;97.10;;;;;;5065369;28;20403;-64
2024/01/09 11:51:55;;;;;;;5.73;4.00;;;-1.20;96.50;;;;;;5065289;28;20772;-64
2024/01/09 11:54:21;;;;;;;4.78;3.90;;;-1.40;96.60;;;;;;5064893;28;20413;-64
2024/01/09 11:56:49;;;;;;;5.93;4.23;;;-1.40;97.30;;;;;;5058484;28;20428;-64
2024/01/09 11:59:18;;;;;;;5.27;3.80;;;-1.50;97.50;;;;;;5061332;28;20421;-64
2024/01/09 12:01:47;;;;;;;5.70;3.95;;;-1.50;97.10;;;;;;5065845;28;20426;-64
2024/01/09 12:04:14;;;;;;;4.95;3.80;;;-1.50;97.30;;;;;;5066447;28;20770;-64
2024/01/09 12:06:41;;;;;;;7.03;3.90;;;-1.50;96.70;;;;;;5068174;28;20403;-63
2024/01/09 12:09:09;;;;;;;5.53;4.15;;;-1.50;96.60;;;;;;5048046;28;20421;-63
2024/01/09 12:11:36;;;;;;;4.78;3.72;;;-1.50;96.70;;;;;;5068523;28;20402;-64
2024/01/09 12:14:03;;;;;;;5.72;4.10;;;-1.50;96.90;;;;;;5068866;28;20867;-63
2024/01/09 12:16:29;;;;;;;5.53;4.18;;;-1.40;97.20;;;;;;5069111;28;20450;-64
2024/01/09 12:18:56;;;;;;;6.43;4.00;;;-1.40;97.10;;;;;;5055097;28;20505;-64
2024/01/09 12:21:28;;;;;;;8.33;3.90;;;-1.30;96.70;;;;;;5073098;28;20500;-64
2024/01/09 12:24:02;;;;;;;5.67;3.80;;;-1.30;96.50;;;;;;5071900;28;20423;-65
2024/01/09 12:26:29;;;;;;;5.50;4.22;;;-1.20;96.30;;;;;;5078834;28;20413;-64
2024/01/09 12:28:55;;;;;;;5.70;4.25;;;-1.10;96.50;;;;;;5075912;28;20424;-64
2024/01/09 12:31:25;;;;;;;5.85;4.50;;;-1.00;97.10;;;;;;5076461;28;21024;-64
2024/01/09 12:33:55;;;;;;;7.43;4.30;;;-0.90;96.90;;;;;;5077065;28;21339;-64
2024/01/09 12:36:21;;;;;;;4.93;4.10;;;-0.80;97.00;;;;;;5073719;28;20856;-64
2024/01/09 12:38:47;;;;;;;5.40;4.30;;;-0.70;96.60;;;;;;5076014;28;20890;-64
2024/01/09 12:41:13;;;;;;;5.82;4.50;;;-0.50;96.60;;;;;;5080217;28;20390;-64
2024/01/09 12:43:39;;;;;;;5.10;4.03;;;-0.40;96.90;;;;;;5075663;28;20895;-64